메인 페이지
METAR-TAF:

METAR-TAF

공항 :

Joplin Regional Airport

Joplin, 미주리, 미국

위도: 37-09-22N, 경도: 094-30-02W, 고도: 299m

현재 날씨관측

예보는 2 시간 15분 전, 09:53시(UTC)에 발표되었습니다.
7kt
온도 14°C
습도 88%
기압 1017 hPa
시정: 16.1km
고도 2200ft 상공 흐림

METAR: KJLN 060953Z AUTO 18007KT 10SM OVC022 14/12 A3002 RMK AO2 SLP160 T01440122

시각: 07:08 (12:08 UTC)

예보

예보는 48분 전, 11:20시(UTC)에 발표되었습니다.
예보 대상 시간: 06일 12시부터 07일 12시까지 (UTC)
5kt
시정: 10km
고도 2000ft 상공 구름 많음
06일 1700시부터 (UTC)
남남서10kt, 순간 최대 풍속 22kt
시정: 10km
고도 1900ft 상공 흐림
06일 2300시부터 (UTC)
남남서9kt
시정: 10km
고도 3000ft 상공 구름 보통
07일 0700시부터 (UTC)
남남서8kt
시정: 10km
고도 3000ft 상공 구름 많음

TAF: KJLN 061120Z 0612/0712 18005KT P6SM BKN020 FM061700 20010G22KT P6SM OVC019 FM062300 20009KT P6SM SCT030 FM070700 21008KT P6SM BKN030

4,000개 이상의 공항 관측 자료 및 예보 (METAR 및 TAF 보고).

지도상에서 검색 가능한 기상관측소가 노란 점과 빨간 점으로 표시되어 있습니다.

기상관측소 명을 보려면 표시 위로 마우스를 이동하세요.

날씨 관측과 예보를 보려면 클릭하세요.

지도 변경 : 확대하려면 엑스 표시가 있는 녹색 버튼, 축소하려면 빼기 표시가 있는 녹색 버튼, 다음 페이지의 지도를 보려면 녹색 화살표를 클릭하세요.


METAR-TAF: